Portada
METAR-TAF:

METAR-TAF

Aeroports :

Luang Prabang, Laos

latitud: 19-53N, longitud: 102-08E, altitud: 305 m

Observació

L'informe es va fer fa 21 minuts, a les 04:00 UTC
Vent 6 kt del Nord
Temperatura 29°C
Humitat 55%
Pressió 1016 hPa
Visibilitat 10 km o més
Núvols disperses a una alçada de 1800 ft
Núvols disperses a una alçada de 6000 ft

METAR: VLLB 140400Z 36006KT 9999 SCT018 SCT060 29/19 Q1016 NOSIG

Hora: 11:21 (04:21 UTC)

Pronòstic

L'informe es va fer fa 5 hores i 21 minuts, a les 23:00 UTC
Pronòstic vàlid del 14 a les 00 UTC al 14 a les 24 UTC
Vent 4 kt del Nord
Visibilitat: 5000 m
Núvols disperses a una alçada de 1000 ft
Núvols disperses a una alçada de 6000 ft
Cel ennuvolat a una alçada de 8000 ft
boirina
Temporalment
l' 14 a les 05 UTC al 14 a les 10 UTC
Visibilitat 10 km o més
Núvols disperses a una alçada de 1600 ft
Cel ennuvolat a una alçada de 6000 ft

TAF: VLLB 132300Z 1400/1424 36004KT 5000 BR SCT010 SCT060 BKN080 TEMPO 1405/1410 9999 SCT016 BKN060

Observacions i pronòstics meteorològics de més de 4000 aeroports (METAR i TAF).

Les estacions disponibles són els punts grocs i vermells al mapa.

Posi el ratolí al punt desitjat per veure el nom de l'estació.

Feu clic per veure les observacions i els pronòstics meteorològics.

Per canviar el mapa: feu clic els botons verds amb una creu de color negre per apropar; al botó verd amb un guió per allunyar la imatge; o en les fletxes verdes per a mapes adjacents.


METAR-TAF: